createdAt,value
2018-09-03T00:00:24.633Z,1015.43
2018-09-03T00:01:34.052Z,1015.43
2018-09-03T00:02:43.487Z,1015.42
2018-09-03T00:03:52.930Z,1015.39
2018-09-03T00:05:02.357Z,1015.4
2018-09-03T00:06:12.052Z,1015.39
2018-09-03T00:07:20.717Z,1015.38
2018-09-03T00:08:30.205Z,1015.38
2018-09-03T00:09:39.638Z,1015.32
2018-09-03T00:10:48.297Z,1015.33
2018-09-03T00:11:57.222Z,1015.31
2018-09-03T00:13:06.649Z,1015.28
2018-09-03T00:14:15.645Z,1015.27
2018-09-03T00:15:25.079Z,1015.26
2018-09-03T00:16:34.501Z,1015.23
2018-09-03T00:17:43.414Z,1015.23
2018-09-03T00:18:52.826Z,1015.2
2018-09-03T00:20:02.250Z,1015.16
2018-09-03T00:21:11.689Z,1015.16
2018-09-03T00:22:20.842Z,1015.09
2018-09-03T00:23:30.518Z,1015.11
2018-09-03T00:24:40.213Z,1015.1
2018-09-03T00:25:49.632Z,1015.04
2018-09-03T00:26:59.314Z,1015.01
2018-09-03T00:28:09.255Z,1014.95
2018-09-03T00:29:18.683Z,1014.93
2018-09-03T00:30:28.622Z,1014.88
2018-09-03T00:31:38.320Z,1014.9
2018-09-03T00:32:48.252Z,1014.86
2018-09-03T00:33:57.925Z,1014.85
2018-09-03T00:35:07.338Z,1014.8
2018-09-03T00:36:16.124Z,1014.82
2018-09-03T00:37:25.564Z,1014.77
2018-09-03T00:38:34.989Z,1014.77
2018-09-03T00:39:44.147Z,1014.75
2018-09-03T00:40:53.054Z,1014.73
2018-09-03T00:42:02.234Z,1014.7
2018-09-03T00:43:11.954Z,1014.69
2018-09-03T00:44:21.435Z,1014.64
2018-09-03T00:45:30.919Z,1014.64
2018-09-03T00:46:40.351Z,1014.63
2018-09-03T00:47:49.781Z,1014.68
2018-09-03T00:48:59.244Z,1014.69
2018-09-03T00:50:08.446Z,1014.67
2018-09-03T00:51:18.381Z,1014.65
2018-09-03T00:52:27.811Z,1014.61
2018-09-03T00:53:36.737Z,1014.62
2018-09-03T00:54:46.165Z,1014.62
2018-09-03T00:55:55.345Z,1014.59
2018-09-03T00:57:04.499Z,1014.57
2018-09-03T00:58:14.225Z,1014.6
2018-09-03T00:59:23.918Z,1014.62
2018-09-03T01:00:33.096Z,1014.59
2018-09-03T01:01:43.118Z,1014.64
2018-09-03T01:02:52.040Z,1014.6
2018-09-03T01:04:01.730Z,1014.61
2018-09-03T01:05:10.903Z,1014.59
2018-09-03T01:06:20.628Z,1014.65
2018-09-03T01:07:30.060Z,1014.66
2018-09-03T01:08:39.214Z,1014.64
2018-09-03T01:09:48.374Z,1014.61
2018-09-03T01:10:57.803Z,1014.58
2018-09-03T01:12:06.973Z,1014.61
2018-09-03T01:13:16.409Z,1014.61
2018-09-03T01:14:25.605Z,1014.62
2018-09-03T01:15:34.778Z,1014.62
2018-09-03T01:16:44.540Z,1014.65
2018-09-03T01:17:54.251Z,1014.61
2018-09-03T01:19:03.180Z,1014.6
2018-09-03T01:20:12.610Z,1014.57
2018-09-03T01:21:22.034Z,1014.56
2018-09-03T01:22:30.941Z,1014.55
2018-09-03T01:23:40.400Z,1014.56
2018-09-03T01:24:49.558Z,1014.56
2018-09-03T01:25:58.998Z,1014.57
2018-09-03T01:27:08.684Z,1014.62
2018-09-03T01:28:17.849Z,1014.62
2018-09-03T01:29:26.803Z,1014.63
2018-09-03T01:30:36.687Z,1014.63
2018-09-03T01:31:46.627Z,1014.63
2018-09-03T01:32:56.568Z,1014.61
2018-09-03T01:34:05.479Z,1014.59
2018-09-03T01:35:14.397Z,1014.55
2018-09-03T01:36:23.827Z,1014.55
2018-09-03T01:37:33.270Z,1014.55
2018-09-03T01:38:42.438Z,1014.51
2018-09-03T01:39:52.144Z,1014.54
2018-09-03T01:41:01.827Z,1014.5
2018-09-03T01:42:10.748Z,1014.51
2018-09-03T01:43:19.916Z,1014.53
2018-09-03T01:44:29.634Z,1014.55
2018-09-03T01:45:38.809Z,1014.57
2018-09-03T01:46:48.495Z,1014.59
2018-09-03T01:47:58.184Z,1014.62
2018-09-03T01:49:07.630Z,1014.61
2018-09-03T01:50:17.073Z,1014.68
2018-09-03T01:51:25.982Z,1014.68
2018-09-03T01:52:35.679Z,1014.74
2018-09-03T01:53:44.865Z,1014.76
2018-09-03T01:54:54.308Z,1014.81
2018-09-03T01:56:03.742Z,1014.86
2018-09-03T01:57:13.423Z,1014.89
2018-09-03T01:58:23.135Z,1014.9
2018-09-03T01:59:32.583Z,1014.93
2018-09-03T02:00:41.501Z,1014.95
2018-09-03T02:01:50.415Z,1014.97
2018-09-03T02:02:59.837Z,1015
2018-09-03T02:04:09.529Z,1014.99
2018-09-03T02:05:19.233Z,1014.97
2018-09-03T02:06:28.921Z,1014.97
2018-09-03T02:07:38.872Z,1014.99
2018-09-03T02:08:48.553Z,1014.98
2018-09-03T02:09:58.053Z,1015.03
2018-09-03T02:11:07.477Z,1015.02
2018-09-03T02:12:16.656Z,1015.06
2018-09-03T02:13:26.096Z,1015.11
2018-09-03T02:14:35.332Z,1015.14
2018-09-03T02:15:45.013Z,1015.1
2018-09-03T02:16:54.437Z,1015.06
2018-09-03T02:18:03.616Z,1015.02
2018-09-03T02:19:13.115Z,1015.04
2018-09-03T02:20:22.278Z,1014.99
2018-09-03T02:21:31.710Z,1015.01
2018-09-03T02:22:41.189Z,1015.05
2018-09-03T02:23:50.625Z,1015.07
2018-09-03T02:24:59.536Z,1015.07
2018-09-03T02:26:09.474Z,1015.01
2018-09-03T02:27:18.636Z,1014.96
2018-09-03T02:28:28.075Z,1014.94
2018-09-03T02:29:37.246Z,1014.88
2018-09-03T02:30:46.740Z,1014.84
2018-09-03T02:31:56.181Z,1014.79
2018-09-03T02:33:05.647Z,1014.82
2018-09-03T02:34:15.087Z,1014.75
2018-09-03T02:35:24.541Z,1014.71
2018-09-03T02:36:34.218Z,1014.71
2018-09-03T02:37:43.908Z,1014.7
2018-09-03T02:38:53.096Z,1014.7
2018-09-03T02:40:03.063Z,1014.71
2018-09-03T02:41:12.220Z,1014.72
2018-09-03T02:42:21.152Z,1014.76
2018-09-03T02:43:30.828Z,1014.78
2018-09-03T02:44:40.523Z,1014.79
2018-09-03T02:45:50.010Z,1014.8
2018-09-03T02:46:59.974Z,1014.8
2018-09-03T02:48:08.894Z,1014.83
2018-09-03T02:49:18.844Z,1014.85
2018-09-03T02:50:28.553Z,1014.94
2018-09-03T02:51:37.755Z,1014.9
2018-09-03T02:52:47.463Z,1014.93
2018-09-03T02:53:56.382Z,1014.87
2018-09-03T02:55:05.291Z,1014.87
2018-09-03T02:56:15.014Z,1014.83
2018-09-03T02:57:24.981Z,1014.82
2018-09-03T02:58:34.663Z,1014.74
2018-09-03T02:59:43.587Z,1014.7
2018-09-03T03:00:53.539Z,1014.7
2018-09-03T03:02:03.485Z,1014.62
2018-09-03T03:03:13.184Z,1014.6
2018-09-03T03:04:22.615Z,1014.58
2018-09-03T03:05:32.288Z,1014.6
2018-09-03T03:06:41.979Z,1014.62
2018-09-03T03:07:51.655Z,1014.6
2018-09-03T03:09:00.827Z,1014.65
2018-09-03T03:10:10.547Z,1014.67
2018-09-03T03:11:19.768Z,1014.59
2018-09-03T03:12:29.451Z,1014.58
2018-09-03T03:13:38.419Z,1014.59
2018-09-03T03:14:47.866Z,1014.57
2018-09-03T03:15:57.043Z,1014.57
2018-09-03T03:17:06.480Z,1014.55
2018-09-03T03:18:15.662Z,1014.5
2018-09-03T03:19:25.362Z,1014.51
2018-09-03T03:20:34.551Z,1014.55
2018-09-03T03:21:43.989Z,1014.49
2018-09-03T03:22:53.169Z,1014.47
2018-09-03T03:24:02.344Z,1014.47
2018-09-03T03:25:11.771Z,1014.44
2018-09-03T03:26:21.462Z,1014.48
2018-09-03T03:27:30.917Z,1014.43
2018-09-03T03:28:40.886Z,1014.44
2018-09-03T03:29:50.068Z,1014.43
2018-09-03T03:30:59.506Z,1014.42
2018-09-03T03:32:08.712Z,1014.38
2018-09-03T03:33:18.188Z,1014.4
2018-09-03T03:34:27.365Z,1014.44
2018-09-03T03:35:36.794Z,1014.41
2018-09-03T03:36:45.958Z,1014.39
2018-09-03T03:37:55.421Z,1014.42
2018-09-03T03:39:04.326Z,1014.39
2018-09-03T03:40:14.010Z,1014.4
2018-09-03T03:41:23.474Z,1014.41
2018-09-03T03:42:32.907Z,1014.36
2018-09-03T03:43:42.332Z,1014.36
2018-09-03T03:44:51.539Z,1014.35
2018-09-03T03:46:00.963Z,1014.34
2018-09-03T03:47:10.388Z,1014.29
2018-09-03T03:48:19.858Z,1014.26
2018-09-03T03:49:29.864Z,1014.21
2018-09-03T03:50:39.546Z,1014.17
2018-09-03T03:51:48.762Z,1014.18
2018-09-03T03:52:58.428Z,1014.17
2018-09-03T03:54:07.606Z,1014.16
2018-09-03T03:55:17.097Z,1014.2
2018-09-03T03:56:26.857Z,1014.19
2018-09-03T03:57:36.311Z,1014.2
2018-09-03T03:58:45.470Z,1014.23
2018-09-03T03:59:55.219Z,1014.18
2018-09-03T04:01:04.393Z,1014.19
2018-09-03T04:02:14.075Z,1014.2
2018-09-03T04:03:23.261Z,1014.17
2018-09-03T04:04:33.204Z,1014.11
2018-09-03T04:05:42.635Z,1014.15
2018-09-03T04:06:51.816Z,1014.1
2018-09-03T04:08:00.995Z,1014.09
2018-09-03T04:09:10.960Z,1014.1
2018-09-03T04:10:20.447Z,1014.12
2018-09-03T04:11:29.884Z,1014.15
2018-09-03T04:12:39.336Z,1014.22
2018-09-03T04:13:48.787Z,1014.22
2018-09-03T04:14:58.217Z,1014.24
2018-09-03T04:16:07.695Z,1014.25
2018-09-03T04:17:16.984Z,1014.26
2018-09-03T04:18:26.419Z,1014.22
2018-09-03T04:19:36.381Z,1014.23
2018-09-03T04:20:46.338Z,1014.25
2018-09-03T04:21:55.520Z,1014.22
2018-09-03T04:23:05.045Z,1014.22
2018-09-03T04:24:15.921Z,1014.18
2018-09-03T04:25:25.087Z,1014.21
2018-09-03T04:26:34.515Z,1014.18
2018-09-03T04:27:43.949Z,1014.15
2018-09-03T04:28:53.473Z,1014.15
2018-09-03T04:30:03.409Z,1014.12
2018-09-03T04:31:12.327Z,1014.11
2018-09-03T04:32:22.012Z,1014.13
2018-09-03T04:33:31.454Z,1014.13
2018-09-03T04:34:41.193Z,1014.16
2018-09-03T04:35:49.854Z,1014.15
2018-09-03T04:36:59.330Z,1014.15
2018-09-03T04:38:08.761Z,1014.15
2018-09-03T04:39:17.678Z,1014.14
2018-09-03T04:40:27.357Z,1014.15
2018-09-03T04:41:36.280Z,1014.14
2018-09-03T04:42:46.081Z,1014.08
2018-09-03T04:43:55.275Z,1014.09
2018-09-03T04:45:04.976Z,1014.04
2018-09-03T04:46:13.900Z,1014.05
2018-09-03T04:47:23.323Z,1014.02
2018-09-03T04:48:32.750Z,1014
2018-09-03T04:49:42.230Z,1013.99
2018-09-03T04:50:51.131Z,1013.93
2018-09-03T04:52:00.564Z,1013.94
2018-09-03T04:53:10.039Z,1013.96
2018-09-03T04:54:18.946Z,1013.9
2018-09-03T04:55:27.888Z,1013.9
2018-09-03T04:56:37.311Z,1013.9
2018-09-03T04:57:46.996Z,1013.94
2018-09-03T04:58:55.912Z,1013.93
2018-09-03T05:00:05.603Z,1013.94
2018-09-03T05:01:15.023Z,1013.97
2018-09-03T05:02:24.210Z,1013.98
2018-09-03T05:03:33.392Z,1014.01
2018-09-03T05:04:42.850Z,1013.98
2018-09-03T05:05:52.303Z,1013.95
2018-09-03T05:07:01.896Z,1014
2018-09-03T05:08:11.271Z,1013.98
2018-09-03T05:09:20.213Z,1014.03
2018-09-03T05:10:30.421Z,1014.02
2018-09-03T05:11:39.846Z,1014.05
2018-09-03T05:12:49.666Z,1014.03
2018-09-03T05:13:58.838Z,1013.98
2018-09-03T05:15:08.269Z,1014.02
2018-09-03T05:16:17.447Z,1013.98
2018-09-03T05:17:27.566Z,1014.05
2018-09-03T05:18:37.013Z,1014.03
2018-09-03T05:19:46.705Z,1014.03
2018-09-03T05:20:56.399Z,1014.05
2018-09-03T05:22:06.135Z,1013.99
2018-09-03T05:23:16.074Z,1014.02
2018-09-03T05:24:25.027Z,1014.05
2018-09-03T05:25:34.187Z,1014.05
2018-09-03T05:26:43.637Z,1014.07
2018-09-03T05:27:53.076Z,1014.1
2018-09-03T05:29:02.520Z,1014.06
2018-09-03T05:30:12.264Z,1014.07
2018-09-03T05:31:21.766Z,1014.09
2018-09-03T05:32:31.035Z,1014.08
2018-09-03T05:33:40.462Z,1014.07
2018-09-03T05:34:49.653Z,1014.06
2018-09-03T05:35:59.362Z,1014.08
2018-09-03T05:37:08.551Z,1014.1
2018-09-03T05:38:18.301Z,1014.07
2018-09-03T05:39:27.740Z,1014.03
2018-09-03T05:40:37.193Z,1014.04
2018-09-03T05:41:46.607Z,1014.04
2018-09-03T05:42:55.862Z,1014.01
2018-09-03T05:44:05.687Z,1014
2018-09-03T05:45:15.176Z,1014.01
2018-09-03T05:46:24.358Z,1014
2018-09-03T05:47:33.782Z,1013.98
2018-09-03T05:48:43.486Z,1013.98
2018-09-03T05:49:53.436Z,1014.04
2018-09-03T05:51:02.612Z,1014.05
2018-09-03T05:52:12.309Z,1014.04
2018-09-03T05:53:21.771Z,1014.03
2018-09-03T05:54:31.236Z,1013.98
2018-09-03T05:55:40.431Z,1013.97
2018-09-03T05:56:49.917Z,1013.89
2018-09-03T05:57:59.672Z,1013.9
2018-09-03T05:59:09.170Z,1013.86
2018-09-03T06:00:19.214Z,1013.87
2018-09-03T06:01:28.892Z,1013.88
2018-09-03T06:02:38.372Z,1013.9
2018-09-03T06:03:47.813Z,1013.9
2018-09-03T06:04:57.641Z,1013.9
2018-09-03T06:06:07.470Z,1013.92
2018-09-03T06:07:17.408Z,1013.91
2018-09-03T06:08:27.122Z,1013.92
2018-09-03T06:09:36.580Z,1013.9
2018-09-03T06:10:46.006Z,1013.9
2018-09-03T06:11:55.184Z,1013.9
2018-09-03T06:13:04.346Z,1013.91
2018-09-03T06:14:13.522Z,1013.93
2018-09-03T06:15:23.239Z,1013.95
2018-09-03T06:16:32.916Z,1013.99
2018-09-03T06:17:42.373Z,1013.92
2018-09-03T06:18:52.245Z,1013.92
2018-09-03T06:20:02.247Z,1013.98
2018-09-03T06:21:11.930Z,1013.9
2018-09-03T06:22:21.375Z,1013.86
2018-09-03T06:23:30.801Z,1013.91
2018-09-03T06:24:39.995Z,1013.86
2018-09-03T06:25:49.688Z,1013.86
2018-09-03T06:26:59.123Z,1013.88
2018-09-03T06:28:08.570Z,1013.85
2018-09-03T06:29:17.476Z,1013.85
2018-09-03T06:30:26.432Z,1013.84
2018-09-03T06:31:35.646Z,1013.84
2018-09-03T06:32:45.380Z,1013.82
2018-09-03T06:33:55.323Z,1013.83
2018-09-03T06:35:04.758Z,1013.82
2018-09-03T06:36:13.953Z,1013.85
2018-09-03T06:37:23.398Z,1013.86
2018-09-03T06:38:32.573Z,1013.86
2018-09-03T06:39:42.038Z,1013.83
2018-09-03T06:40:51.224Z,1013.83
2018-09-03T06:42:00.123Z,1013.74
2018-09-03T06:43:09.817Z,1013.65
2018-09-03T06:44:18.994Z,1013.64
2018-09-03T06:45:28.688Z,1013.61
2018-09-03T06:46:37.902Z,1013.66
2018-09-03T06:47:46.815Z,1013.64
2018-09-03T06:48:55.987Z,1013.62
2018-09-03T06:50:05.682Z,1013.66
2018-09-03T06:51:15.115Z,1013.61
2018-09-03T06:52:24.817Z,1013.64
2018-09-03T06:53:34.617Z,1013.65
2018-09-03T06:54:43.905Z,1013.62
2018-09-03T06:55:53.630Z,1013.65
2018-09-03T06:57:03.066Z,1013.67
2018-09-03T06:58:12.256Z,1013.65
2018-09-03T06:59:21.677Z,1013.59
2018-09-03T07:00:31.788Z,1013.61
2018-09-03T07:01:40.994Z,1013.62
2018-09-03T07:02:50.166Z,1013.58
2018-09-03T07:03:59.078Z,1013.64
2018-09-03T07:05:08.485Z,1013.65
2018-09-03T07:06:18.170Z,1013.68
2018-09-03T07:07:27.904Z,1013.68
2018-09-03T07:08:37.613Z,1013.73
2018-09-03T07:09:47.067Z,1013.73
2018-09-03T07:10:56.540Z,1013.71
2018-09-03T07:12:06.248Z,1013.64
2018-09-03T07:13:15.169Z,1013.67
2018-09-03T07:14:24.887Z,1013.7
2018-09-03T07:15:34.323Z,1013.7
2018-09-03T07:16:43.496Z,1013.72
2018-09-03T07:17:53.029Z,1013.72
2018-09-03T07:19:02.489Z,1013.7
2018-09-03T07:20:11.933Z,1013.66
2018-09-03T07:21:21.107Z,1013.69
2018-09-03T07:22:30.569Z,1013.73
2018-09-03T07:23:39.777Z,1013.76
2018-09-03T07:24:49.204Z,1013.82
2018-09-03T07:25:58.421Z,1013.78
2018-09-03T07:27:07.594Z,1013.71
2018-09-03T07:28:17.042Z,1013.72
2018-09-03T07:29:26.481Z,1013.73
2018-09-03T07:30:35.409Z,1013.71
2018-09-03T07:31:44.632Z,1013.71
2018-09-03T07:32:54.076Z,1013.72
2018-09-03T07:34:03.777Z,1013.7
2018-09-03T07:35:13.071Z,1013.67
2018-09-03T07:36:22.880Z,1013.66
2018-09-03T07:37:32.309Z,1013.65
2018-09-03T07:38:41.737Z,1013.66
2018-09-03T07:39:51.443Z,1013.64
2018-09-03T07:41:00.877Z,1013.65
2018-09-03T07:42:10.305Z,1013.66
2018-09-03T07:43:19.757Z,1013.66
2018-09-03T07:44:29.185Z,1013.67
2018-09-03T07:45:39.147Z,1013.71
2018-09-03T07:46:48.633Z,1013.7
2018-09-03T07:47:58.080Z,1013.71
2018-09-03T07:49:07.521Z,1013.72
2018-09-03T07:50:16.964Z,1013.75
2018-09-03T07:51:26.413Z,1013.76
2018-09-03T07:52:36.103Z,1013.75
2018-09-03T07:53:45.274Z,1013.71
2018-09-03T07:54:54.756Z,1013.71
2018-09-03T07:56:04.228Z,1013.71
2018-09-03T07:57:13.909Z,1013.73
2018-09-03T07:58:22.574Z,1013.66
2018-09-03T07:59:32.261Z,1013.71
2018-09-03T08:00:41.454Z,1013.73
2018-09-03T08:01:51.145Z,1013.76
2018-09-03T08:03:00.346Z,1013.73
2018-09-03T08:04:09.526Z,1013.71
2018-09-03T08:05:18.966Z,1013.67
2018-09-03T08:06:28.833Z,1013.66
2018-09-03T08:07:38.022Z,1013.69
2018-09-03T08:08:47.465Z,1013.63
2018-09-03T08:09:56.641Z,1013.66
2018-09-03T08:11:05.814Z,1013.66
2018-09-03T08:12:15.030Z,1013.66
2018-09-03T08:13:23.977Z,1013.66
2018-09-03T08:14:33.162Z,1013.74
2018-09-03T08:15:42.925Z,1013.68
2018-09-03T08:16:52.381Z,1013.7
2018-09-03T08:18:01.049Z,1013.66
2018-09-03T08:19:10.224Z,1013.7
2018-09-03T08:20:19.663Z,1013.66
2018-09-03T08:21:28.567Z,1013.63
2018-09-03T08:22:38.267Z,1013.59
2018-09-03T08:23:47.966Z,1013.56
2018-09-03T08:24:57.429Z,1013.54
2018-09-03T08:26:06.599Z,1013.52
2018-09-03T08:27:15.527Z,1013.41
2018-09-03T08:28:25.244Z,1013.42
2018-09-03T08:29:34.941Z,1013.36
2018-09-03T08:30:44.137Z,1013.37
2018-09-03T08:31:53.813Z,1013.35
2018-09-03T08:33:03.232Z,1013.36
2018-09-03T08:34:12.390Z,1013.36
2018-09-03T08:35:21.569Z,1013.39
2018-09-03T08:36:31.609Z,1013.42
2018-09-03T08:37:41.065Z,1013.48
2018-09-03T08:38:50.780Z,1013.46
2018-09-03T08:39:59.714Z,1013.49
2018-09-03T08:41:09.231Z,1013.54
2018-09-03T08:42:18.911Z,1013.57
2018-09-03T08:43:28.337Z,1013.55
2018-09-03T08:44:37.782Z,1013.55
2018-09-03T08:45:47.741Z,1013.54
2018-09-03T08:46:57.436Z,1013.6
2018-09-03T08:48:07.479Z,1013.63
2018-09-03T08:49:17.421Z,1013.6
2018-09-03T08:50:26.390Z,1013.61
2018-09-03T08:51:36.102Z,1013.61
2018-09-03T08:52:45.530Z,1013.66
2018-09-03T08:53:55.490Z,1013.62
2018-09-03T08:55:04.400Z,1013.62
2018-09-03T08:56:13.555Z,1013.67
2018-09-03T08:57:22.464Z,1013.64
2018-09-03T08:58:32.155Z,1013.64
2018-09-03T08:59:41.630Z,1013.65
2018-09-03T09:00:50.611Z,1013.65
2018-09-03T09:02:00.052Z,1013.64
2018-09-03T09:03:08.957Z,1013.66
2018-09-03T09:04:18.902Z,1013.64
2018-09-03T09:05:28.335Z,1013.6
2018-09-03T09:06:37.252Z,1013.63
2018-09-03T09:07:46.424Z,1013.62
2018-09-03T09:08:56.373Z,1013.65
2018-09-03T09:10:05.809Z,1013.63
2018-09-03T09:11:15.256Z,1013.64
2018-09-03T09:12:24.423Z,1013.65
2018-09-03T09:13:34.128Z,1013.66
2018-09-03T09:14:44.083Z,1013.68
2018-09-03T09:15:53.500Z,1013.67
2018-09-03T09:17:02.683Z,1013.65
2018-09-03T09:18:12.119Z,1013.67
2018-09-03T09:19:21.286Z,1013.66
2018-09-03T09:20:30.969Z,1013.67
2018-09-03T09:21:40.905Z,1013.7
2018-09-03T09:22:50.098Z,1013.71
2018-09-03T09:23:59.260Z,1013.69
2018-09-03T09:25:08.587Z,1013.68
2018-09-03T09:26:18.250Z,1013.67
2018-09-03T09:27:27.425Z,1013.66
2018-09-03T09:28:36.605Z,1013.65
2018-09-03T09:29:46.337Z,1013.67
2018-09-03T09:30:55.765Z,1013.63
2018-09-03T09:32:05.034Z,1013.63
2018-09-03T09:33:14.708Z,1013.62
2018-09-03T09:34:23.879Z,1013.61
2018-09-03T09:35:33.308Z,1013.56
2018-09-03T09:36:42.531Z,1013.52
2018-09-03T09:37:52.752Z,1013.48
2018-09-03T09:39:02.462Z,1013.46
2018-09-03T09:40:11.884Z,1013.49
2018-09-03T09:41:21.690Z,1013.42
2018-09-03T09:42:30.855Z,1013.46
2018-09-03T09:43:40.274Z,1013.49
2018-09-03T09:44:49.489Z,1013.41
2018-09-03T09:45:58.925Z,1013.44
2018-09-03T09:47:08.649Z,1013.43
2018-09-03T09:48:18.067Z,1013.42
2018-09-03T09:49:27.763Z,1013.47
2018-09-03T09:50:37.706Z,1013.43
2018-09-03T09:51:46.877Z,1013.4
2018-09-03T09:52:56.916Z,1013.39
2018-09-03T09:54:06.352Z,1013.35
2018-09-03T09:55:16.037Z,1013.39
2018-09-03T09:56:24.947Z,1013.41
2018-09-03T09:57:34.220Z,1013.41
2018-09-03T09:58:43.676Z,1013.43
2018-09-03T09:59:52.866Z,1013.4
2018-09-03T10:01:01.811Z,1013.4
2018-09-03T10:02:10.984Z,1013.4
2018-09-03T10:03:20.677Z,1013.32
2018-09-03T10:04:30.121Z,1013.33
2018-09-03T10:05:39.590Z,1013.3
2018-09-03T10:06:49.012Z,1013.33
2018-09-03T10:07:58.449Z,1013.32
2018-09-03T10:09:07.628Z,1013.32
2018-09-03T10:10:17.486Z,1013.28
2018-09-03T10:11:26.688Z,1013.24
2018-09-03T10:12:36.113Z,1013.21
2018-09-03T10:13:45.378Z,1013.2
2018-09-03T10:14:55.090Z,1013.16
2018-09-03T10:16:04.802Z,1013.17
2018-09-03T10:17:13.979Z,1013.16
2018-09-03T10:18:23.153Z,1013.12
2018-09-03T10:19:32.364Z,1013.13
2018-09-03T10:20:42.158Z,1013.16
2018-09-03T10:21:52.019Z,1013.15
2018-09-03T10:23:01.738Z,1013.17
2018-09-03T10:24:11.161Z,1013.19
2018-09-03T10:25:20.595Z,1013.17
2018-09-03T10:26:30.337Z,1013.18
2018-09-03T10:27:40.288Z,1013.2
2018-09-03T10:28:49.986Z,1013.19
2018-09-03T10:29:59.424Z,1013.17
2018-09-03T10:31:08.853Z,1013.15
2018-09-03T10:32:18.539Z,1013.14
2018-09-03T10:33:28.005Z,1013.11
2018-09-03T10:34:37.232Z,1013.09
2018-09-03T10:35:46.667Z,1013.08
2018-09-03T10:36:56.363Z,1013.06
2018-09-03T10:38:06.437Z,1013.03
2018-09-03T10:39:16.915Z,1012.99
2018-09-03T10:40:26.091Z,1012.9
2018-09-03T10:41:35.784Z,1012.87
2018-09-03T10:42:45.486Z,1012.88
2018-09-03T10:43:54.920Z,1012.88
2018-09-03T10:45:04.881Z,1012.87
2018-09-03T10:46:14.711Z,1012.89
2018-09-03T10:47:23.738Z,1012.9
2018-09-03T10:48:33.735Z,1012.93
2018-09-03T10:49:42.929Z,1012.96
2018-09-03T10:50:52.675Z,1012.99
2018-09-03T10:52:01.594Z,1012.96
2018-09-03T10:53:10.762Z,1012.96
2018-09-03T10:54:20.460Z,1013.01
2018-09-03T10:55:29.381Z,1013
2018-09-03T10:56:38.870Z,1012.99
2018-09-03T10:57:48.071Z,1012.93
2018-09-03T10:58:57.389Z,1012.96
2018-09-03T11:00:06.583Z,1012.96
2018-09-03T11:01:15.754Z,1012.95
2018-09-03T11:02:25.198Z,1012.94
2018-09-03T11:03:34.149Z,1012.94
2018-09-03T11:04:43.304Z,1012.89
2018-09-03T11:05:52.491Z,1012.87
2018-09-03T11:07:01.916Z,1012.87
2018-09-03T11:08:11.076Z,1012.79
2018-09-03T11:09:20.275Z,1012.79
2018-09-03T11:10:29.711Z,1012.78
2018-09-03T11:11:39.429Z,1012.8
2018-09-03T11:12:48.631Z,1012.79
2018-09-03T11:13:58.639Z,1012.82
2018-09-03T11:15:07.926Z,1012.77
2018-09-03T11:16:17.696Z,1012.76
2018-09-03T11:17:26.609Z,1012.73
2018-09-03T11:18:35.775Z,1012.7
2018-09-03T11:19:45.800Z,1012.68
2018-09-03T11:20:55.287Z,1012.68
2018-09-03T11:22:04.568Z,1012.61
2018-09-03T11:23:14.023Z,1012.6
2018-09-03T11:24:22.966Z,1012.58
2018-09-03T11:25:32.649Z,1012.55
2018-09-03T11:26:42.083Z,1012.54
2018-09-03T11:27:51.828Z,1012.53
2018-09-03T11:29:01.786Z,1012.51
2018-09-03T11:30:11.259Z,1012.52
2018-09-03T11:31:20.768Z,1012.49
2018-09-03T11:32:30.197Z,1012.45
2018-09-03T11:33:39.645Z,1012.48
2018-09-03T11:34:49.327Z,1012.49
2018-09-03T11:35:59.085Z,1012.51
2018-09-03T11:37:08.508Z,1012.48
2018-09-03T11:38:18.200Z,1012.48
2018-09-03T11:39:27.364Z,1012.45
2018-09-03T11:40:36.281Z,1012.48
2018-09-03T11:41:46.111Z,1012.49
2018-09-03T11:42:55.561Z,1012.5
2018-09-03T11:44:04.989Z,1012.49
2018-09-03T11:45:14.414Z,1012.47
2018-09-03T11:46:23.833Z,1012.47
2018-09-03T11:47:33.020Z,1012.43
2018-09-03T11:48:42.490Z,1012.43
2018-09-03T11:49:51.939Z,1012.44
2018-09-03T11:51:01.392Z,1012.45
2018-09-03T11:52:10.805Z,1012.42
2018-09-03T11:53:20.227Z,1012.46
2018-09-03T11:54:29.241Z,1012.46
2018-09-03T11:55:39.200Z,1012.45
2018-09-03T11:56:48.927Z,1012.45
2018-09-03T11:57:58.607Z,1012.48
2018-09-03T11:59:08.125Z,1012.46
2018-09-03T12:00:17.816Z,1012.48
2018-09-03T12:01:27.049Z,1012.45
2018-09-03T12:02:36.208Z,1012.42
2018-09-03T12:03:45.637Z,1012.44
2018-09-03T12:04:55.569Z,1012.43
2018-09-03T12:06:05.051Z,1012.45
2018-09-03T12:07:14.482Z,1012.5
2018-09-03T12:08:23.645Z,1012.47
2018-09-03T12:09:33.350Z,1012.49
2018-09-03T12:10:42.562Z,1012.5
2018-09-03T12:11:51.972Z,1012.49
2018-09-03T12:13:00.881Z,1012.49
2018-09-03T12:14:10.293Z,1012.48
2018-09-03T12:15:19.979Z,1012.45
2018-09-03T12:16:28.883Z,1012.42
2018-09-03T12:17:38.571Z,1012.4
2018-09-03T12:18:47.220Z,1012.4
2018-09-03T12:19:56.403Z,1012.42
2018-09-03T12:21:06.139Z,1012.4
2018-09-03T12:22:16.283Z,1012.42
2018-09-03T12:23:25.186Z,1012.42
2018-09-03T12:24:34.878Z,1012.4
2018-09-03T12:25:44.553Z,1012.39
2018-09-03T12:26:54.244Z,1012.38
2018-09-03T12:28:03.927Z,1012.41
2018-09-03T12:29:13.640Z,1012.36
2018-09-03T12:30:23.116Z,1012.44
2018-09-03T12:31:32.376Z,1012.4
2018-09-03T12:32:42.446Z,1012.35
2018-09-03T12:33:51.876Z,1012.35
2018-09-03T12:35:01.304Z,1012.35
2018-09-03T12:36:10.461Z,1012.36
2018-09-03T12:37:19.940Z,1012.35
2018-09-03T12:38:29.896Z,1012.34
2018-09-03T12:39:39.343Z,1012.3
2018-09-03T12:40:48.912Z,1012.37
2018-09-03T12:41:58.341Z,1012.39
2018-09-03T12:43:07.527Z,1012.38
2018-09-03T12:44:16.977Z,1012.35
2018-09-03T12:45:26.671Z,1012.32
2018-09-03T12:46:35.620Z,1012.34
2018-09-03T12:47:44.788Z,1012.36
2018-09-03T12:48:54.244Z,1012.36
2018-09-03T12:50:03.741Z,1012.33
2018-09-03T12:51:13.688Z,1012.36
2018-09-03T12:52:23.401Z,1012.41
2018-09-03T12:53:32.574Z,1012.41
2018-09-03T12:54:42.521Z,1012.39
2018-09-03T12:55:51.965Z,1012.38
2018-09-03T12:57:01.414Z,1012.36
2018-09-03T12:58:10.577Z,1012.37
2018-09-03T12:59:20.320Z,1012.36
2018-09-03T13:00:29.750Z,1012.37
2018-09-03T13:01:44.084Z,1012.36
2018-09-03T13:02:53.513Z,1012.38
2018-09-03T13:04:03.251Z,1012.38
2018-09-03T13:05:12.950Z,1012.38
2018-09-03T13:06:23.310Z,1012.39
2018-09-03T13:07:32.282Z,1012.33
2018-09-03T13:08:41.697Z,1012.38
2018-09-03T13:09:51.455Z,1012.41
2018-09-03T13:11:00.882Z,1012.36
2018-09-03T13:12:10.045Z,1012.37
2018-09-03T13:13:19.726Z,1012.38
2018-09-03T13:14:30.126Z,1012.36
2018-09-03T13:15:39.557Z,1012.37
2018-09-03T13:16:49.531Z,1012.34
2018-09-03T13:17:58.781Z,1012.37
2018-09-03T13:19:07.509Z,1012.4
2018-09-03T13:20:17.252Z,1012.38
2018-09-03T13:21:26.951Z,1012.35
2018-09-03T13:22:36.633Z,1012.38
2018-09-03T13:23:46.055Z,1012.34
2018-09-03T13:24:55.979Z,1012.37
2018-09-03T13:26:05.670Z,1012.35
2018-09-03T13:27:15.126Z,1012.39
2018-09-03T13:28:24.544Z,1012.4
2018-09-03T13:29:33.189Z,1012.37
2018-09-03T13:30:42.926Z,1012.37
2018-09-03T13:31:52.992Z,1012.3
2018-09-03T13:33:02.930Z,1012.29
2018-09-03T13:34:12.362Z,1012.27
2018-09-03T13:35:21.522Z,1012.28
2018-09-03T13:36:30.942Z,1012.24
2018-09-03T13:37:40.899Z,1012.19
2018-09-03T13:38:49.805Z,1012.23
2018-09-03T13:39:58.974Z,1012.14
2018-09-03T13:41:08.139Z,1012.17
2018-09-03T13:42:18.008Z,1012.17
2018-09-03T13:43:28.407Z,1012.2
2018-09-03T13:44:37.837Z,1012.23
2018-09-03T13:45:47.518Z,1012.19
2018-09-03T13:46:57.201Z,1012.22
2018-09-03T13:48:06.644Z,1012.19
2018-09-03T13:49:16.956Z,1012.16
2018-09-03T13:50:26.790Z,1012.17
2018-09-03T13:51:36.482Z,1012.2
2018-09-03T13:52:45.897Z,1012.17
2018-09-03T13:53:55.318Z,1012.14
2018-09-03T13:55:05.044Z,1012.18
2018-09-03T13:56:14.653Z,1012.2
2018-09-03T13:57:24.438Z,1012.17
2018-09-03T13:58:33.854Z,1012.17
2018-09-03T13:59:43.795Z,1012.15
2018-09-03T14:00:52.700Z,1012.2
2018-09-03T14:02:02.646Z,1012.16
2018-09-03T14:03:11.829Z,1012.15